WetterOnline ( http://www.wetteronline.de )

Wetter aktuell Gelsenkirchen

Aktuelles Wetter: Essen (161m)

6-stündlich | Neueste Meldungen
Ortszeit Temperatur Wetter
Mo, 23.04. 14:00 16.4° C leicht bewölkt
Mo, 23.04. 8:00 13.5° C bewölkt
Mo, 23.04. 2:00 18.2° C bewölkt
So, 22.04. 20:00 21.6° C wolkig
So, 22.04. 14:00 24.8° C bedeckt
So, 22.04. 8:00 14.6° C leicht bewölkt
So, 22.04. 2:00 15.5° C wolkig
Sa, 21.04. 20:00 20.7° C leicht bewölkt
Ortszeit Temperatur Wetter
Mo, 23.04. 15:00 17.5° C bewölkt
Mo, 23.04. 14:50 17.5° C bewölkt
Mo, 23.04. 14:40 17.3° C wolkig
Mo, 23.04. 14:30 17.1° C wolkig
Mo, 23.04. 14:20 17.1° C wolkig
Mo, 23.04. 14:10 16.9° C wolkig
Mo, 23.04. 14:00 16.4° C leicht bewölkt
Mo, 23.04. 13:30 16.6° C wolkig
Mo, 23.04. 13:00 16.0° C bewölkt
Mo, 23.04. 12:30 16.0° C bewölkt
Mo, 23.04. 12:00 15.2° C bewölkt
Ortszeit Relative Feuchte Sichtweite
Mo, 23.04. 14:00 57% 21 km
Mo, 23.04. 8:00 82% 15 km
Mo, 23.04. 2:00 70% 12 km
So, 22.04. 20:00 57% 35 km
So, 22.04. 14:00 45% 21 km
So, 22.04. 8:00 76% 12 km
So, 22.04. 2:00 64% 20 km
Sa, 21.04. 20:00 47% 23 km
Ortszeit Relative Feuchte Sichtweite
Mo, 23.04. 15:00 55% 24 km
Mo, 23.04. 14:50 55% -
Mo, 23.04. 14:40 53% -
Mo, 23.04. 14:30 55% 25 km
Mo, 23.04. 14:20 55% -
Mo, 23.04. 14:10 58% -
Mo, 23.04. 14:00 57% 21 km
Mo, 23.04. 13:30 59% 21 km
Mo, 23.04. 13:00 62% 25 km
Mo, 23.04. 12:30 61% 19 km
Mo, 23.04. 12:00 66% 21 km
Ortszeit Niederschlagsmenge Niederschlagsart
Mo, 23.04. 14:00 0.0 l/m2 in 6 Std. -
Mo, 23.04. 8:00 5 l/m2 in 12 Std. Regenschauer
Mo, 23.04. 2:00 0.0 l/m2 in 6 Std. -
So, 22.04. 20:00 0.8 l/m2 in 12 Std. Regen
So, 22.04. 14:00 0.0 l/m2 in 6 Std. -
So, 22.04. 8:00 0.0 l/m2 in 12 Std. -
So, 22.04. 2:00 0.0 l/m2 in 6 Std. -
Sa, 21.04. 20:00 0.0 l/m2 in 12 Std. -
Ortszeit Niederschlagsmenge Niederschlagsart
Mo, 23.04. 15:00 0.0 l/m2 in 1 Std. -
Mo, 23.04. 14:50 keine Meldung -
Mo, 23.04. 14:40 keine Meldung -
Mo, 23.04. 14:30 0.0 l/m2 in 1 Std. -
Mo, 23.04. 14:20 keine Meldung -
Mo, 23.04. 14:10 keine Meldung -
Mo, 23.04. 14:00 0.0 l/m2 in 1 Std. -
Mo, 23.04. 13:30 0.0 l/m2 in 1 Std. -
Mo, 23.04. 13:00 0.0 l/m2 in 1 Std. -
Mo, 23.04. 12:30 0.0 l/m2 in 1 Std. -
Mo, 23.04. 12:00 0.0 l/m2 in 1 Std. -
Ortszeit Stärke Spitze Richtung
km/h Bft. km/h Grad Sektor
Mo, 23.04. 14:00 14 3 40 260° W
Mo, 23.04. 8:00 9 2 31 240° SW
Mo, 23.04. 2:00 7 2 32 190° S
So, 22.04. 20:00 11 2 36 200° S
So, 22.04. 14:00 7 2 25 190° S
So, 22.04. 8:00 6 1 17 130° SO
So, 22.04. 2:00 11 2 22 80° O
Sa, 21.04. 20:00 11 2 25 40° NO
Ortszeit Stärke Spitze Richtung
km/h Bft. km/h Grad Sektor
Mo, 23.04. 15:00 11 2 26 260° W
Mo, 23.04. 14:50 11 2 - 260° W
Mo, 23.04. 14:40 15 3 - 250° W
Mo, 23.04. 14:30 15 3 26 250° W
Mo, 23.04. 14:20 15 3 - 250° W
Mo, 23.04. 14:10 11 2 - 260° W
Mo, 23.04. 14:00 14 3 29 260° W
Mo, 23.04. 13:30 13 3 24 260° W
Mo, 23.04. 13:00 11 2 40 260° W
Mo, 23.04. 12:30 18 3 40 250° W
Mo, 23.04. 12:00 11 2 30 260° W
Ortszeit Untergrenze Bedeckung Gattung
total tief tief mittel hoch
Mo, 23.04. 14:00 1260 m 3/8 - - - -
Mo, 23.04. 8:00 840 m 8/8 4/8 - - -
Mo, 23.04. 2:00 3600 m 8/8 5/8 - - -
So, 22.04. 20:00 9000 m 8/8 0/8 - - -
So, 22.04. 14:00 3600 m 8/8 8/8 - - -
So, 22.04. 8:00 2400 m 5/8 2/8 - - -
So, 22.04. 2:00 2700 m 7/8 1/8 - - -
Sa, 21.04. 20:00 10500 m 6/8 0/8 - - -
Ortszeit Bedeckungsgrad in Achtel und Wolkenuntergrenze
Mo, 23.04. 15:00 6(1320m) 7(1500m)
Mo, 23.04. 14:50 6(1320m) 7(1500m)
Mo, 23.04. 14:40 6(1320m) 6(1500m)
Mo, 23.04. 14:30 4(1380m) 5(1500m)
Mo, 23.04. 14:20 4(1380m) 5(1500m)
Mo, 23.04. 14:10 5(1350m) 5(1500m)
Mo, 23.04. 14:00 2(1260m) 3(1470m) 9
Mo, 23.04. 13:30 5(1170m) 6(1410m)
Mo, 23.04. 13:00 6(1080m) 7(1320m)
Mo, 23.04. 12:30 5(990m) 7(1290m)
Mo, 23.04. 12:00 6(840m) 7(1050m) 7(1230m)
Ortszeit Luftdruck NN (hPa) Tendenz (hPa in 3 Std.)
Mo, 23.04. 14:00 1016 + 0,8
Mo, 23.04. 8:00 1014 + 1,4
Mo, 23.04. 2:00 1011 - 0,4
So, 22.04. 20:00 1009 - 0,8
So, 22.04. 14:00 1011 - 1,4
So, 22.04. 8:00 1014 - 1,7
So, 22.04. 2:00 1017 - 1,1
Sa, 21.04. 20:00 1019 - 1,2
Ortszeit Luftdruck NN (hPa) Tendenz (hPa in 3 Std.)
Mo, 23.04. 15:00 1016 + 0,2
Mo, 23.04. 14:50 1016 keine Meldung
Mo, 23.04. 14:40 1016 keine Meldung
Mo, 23.04. 14:30 1016 + 0,7
Mo, 23.04. 14:20 1016 keine Meldung
Mo, 23.04. 14:10 1016 keine Meldung
Mo, 23.04. 14:00 1016 + 0,8
Mo, 23.04. 13:30 1016 + 0,9
Mo, 23.04. 13:00 1016 + 1,1
Mo, 23.04. 12:30 1016 + 1,2
Mo, 23.04. 12:00 1016 + 1,3
Ortszeit Schneehöhe (cm)
Mo, 23.04. 14:00 0
Mo, 23.04. 8:00 0
Mo, 23.04. 2:00 0
So, 22.04. 20:00 0
So, 22.04. 14:00 0
So, 22.04. 8:00 0
So, 22.04. 2:00 0
Sa, 21.04. 20:00 0
Ortszeit Schneehöhe (cm)
Mo, 23.04. 15:00 -
Mo, 23.04. 14:50 -
Mo, 23.04. 14:40 -
Mo, 23.04. 14:30 0
Mo, 23.04. 14:20 0
Mo, 23.04. 14:10 0
Mo, 23.04. 14:00 0
Mo, 23.04. 13:30 0
Mo, 23.04. 13:00 0
Mo, 23.04. 12:30 0
Mo, 23.04. 12:00 0
Link zu dieser Seite / Seite empfehlen

Das Wetter in ...